Time;durP1;ratioP1;P1;durP2;ratioP2;P2;SDS_P1;SDS_P2;PMS_P1;PMS_P2;Temp;Humidity;BMP_temperature;BMP_pressure;BME280_temperature;BME280_humidity;BME280_pressure;Samples;Min_cycle;Max_cycle;Signal;HPM_P1;HPM_P2
2022/12/23 00:00:00;;;;;;;;;;;11.00;99.90;;;;;;5042640;28;20051;-74
2022/12/23 00:02:29;;;;;;;;;;;10.90;99.90;;;;;;5042323;28;19928;-74
2022/12/23 00:04:56;;;;;;;;;;;11.30;99.90;;;;;;5042522;28;19929;-74
2022/12/23 00:07:22;;;;;;;;;;;10.90;99.90;;;;;;5033296;28;20019;-74
2022/12/23 00:09:49;;;;;;;;;;;10.90;99.90;;;;;;5028249;28;19952;-74
2022/12/23 00:15:06;;;;;;;;;;;10.90;99.90;;;;;;5047657;28;19932;-75
2022/12/23 00:17:34;;;;;;;;;;;10.90;99.90;;;;;;5034061;28;20393;-75
2022/12/23 00:20:01;;;;;;;;;;;10.90;99.90;;;;;;5035523;28;19932;-74
2022/12/23 00:25:09;;;;;;;;;;;10.90;99.90;;;;;;5036180;28;20290;-75
2022/12/23 00:27:36;;;;;;;;;;;10.90;99.90;;;;;;5045151;28;19974;-75
2022/12/23 00:30:03;;;;;;;;;;;10.90;99.90;;;;;;5050995;28;19935;-75
2022/12/23 00:32:29;;;;;;;;;;;10.90;99.90;;;;;;5039237;28;20015;-75
2022/12/23 00:34:57;;;;;;;;;;;10.90;99.90;;;;;;5037008;28;19940;-75
2022/12/23 00:37:24;;;;;;;;;;;10.90;99.90;;;;;;5047850;28;19929;-75
2022/12/23 00:45:28;;;;;;;;;;;10.90;99.90;;;;;;5003809;28;20074;-74
2022/12/23 00:50:40;;;;;;;;;;;10.90;99.90;;;;;;5046886;28;19921;-73
2022/12/23 00:53:07;;;;;;;;;;;10.90;99.90;;;;;;5045151;28;20015;-73
2022/12/23 00:55:34;;;;;;;;;;;10.90;99.90;;;;;;5035366;28;19929;-74
2022/12/23 00:58:00;;;;;;;;;;;10.30;99.90;;;;;;5028122;28;19951;-74
2022/12/23 01:05:58;;;;;;;;;;;11.00;99.90;;;;;;5048151;28;19920;-74
2022/12/23 01:08:26;;;;;;;;;;;11.00;99.90;;;;;;5038437;28;19963;-74
2022/12/23 01:10:52;;;;;;;;;;;11.00;99.90;;;;;;5049575;28;20432;-74
2022/12/23 01:13:19;;;;;;;;;;;10.90;99.90;;;;;;5030372;28;19939;-73
2022/12/23 01:15:46;;;;;;;;;;;10.40;99.90;;;;;;5044348;28;20152;-74
2022/12/23 01:18:13;;;;;;;;;;;11.00;99.90;;;;;;5041308;28;19929;-73
2022/12/23 01:20:40;;;;;;;;;;;11.00;99.90;;;;;;5045395;28;19972;-74
2022/12/23 01:23:08;;;;;;;;;;;10.90;99.90;;;;;;5034445;28;19931;-75
2022/12/23 01:25:34;;;;;;;;;;;11.00;99.90;;;;;;5046468;28;19929;-74
2022/12/23 01:28:01;;;;;;;;;;;11.00;99.90;;;;;;5046449;28;19936;-76
2022/12/23 01:30:28;;;;;;;;;;;11.00;99.90;;;;;;5030182;28;20385;-76
2022/12/23 01:32:55;;;;;;;;;;;11.00;99.90;;;;;;5049477;28;20364;-76
2022/12/23 01:35:21;;;;;;;;;;;11.00;99.90;;;;;;5043111;28;19936;-76
2022/12/23 01:37:48;;;;;;;;;;;11.00;99.90;;;;;;5041687;28;19933;-76
2022/12/23 01:40:16;;;;;;;;;;;11.00;99.90;;;;;;5042040;28;20290;-74
2022/12/23 01:42:42;;;;;;;;;;;11.00;99.90;;;;;;5049213;28;19928;-74
2022/12/23 01:45:14;;;;;;;;;;;11.00;99.90;;;;;;5042814;28;19921;-73
2022/12/23 01:47:43;;;;;;;;;;;11.30;99.90;;;;;;5046656;28;19925;-74
2022/12/23 01:50:11;;;;;;;;;;;11.00;99.90;;;;;;5016080;28;19940;-74
2022/12/23 01:52:41;;;;;;;;;;;11.10;99.90;;;;;;5043951;28;19940;-74
2022/12/23 01:55:09;;;;;;;;;;;11.10;99.90;;;;;;5036012;28;19928;-74
2022/12/23 01:57:40;;;;;;;;;;;12.00;99.90;;;;;;5026978;28;19929;-74
2022/12/23 02:05:38;;;;;;;;;;;11.10;99.90;;;;;;5037310;28;19933;-74
2022/12/23 02:11:01;;;;;;;;;;;11.10;99.90;;;;;;5042517;28;19920;-74
2022/12/23 02:13:33;;;;;;;;;;;11.10;99.90;;;;;;5051104;28;19994;-74
2022/12/23 02:16:15;;;;;;;;;;;11.20;99.90;;;;;;5055663;28;19939;-75
2022/12/23 02:18:48;;;;;;;;;;;11.20;99.90;;;;;;5040259;28;19964;-75
2022/12/23 02:21:24;;;;;;;;;;;10.50;99.90;;;;;;5049879;28;19928;-75
2022/12/23 02:24:09;;;;;;;;;;;11.20;99.90;;;;;;5038647;28;20316;-75
2022/12/23 02:26:46;;;;;;;;;;;11.20;99.90;;;;;;5046258;28;19929;-74
2022/12/23 02:29:26;;;;;;;;;;;11.20;99.90;;;;;;5052474;28;20262;-75
2022/12/23 02:31:57;;;;;;;;;;;11.20;99.90;;;;;;5040737;28;19939;-75
2022/12/23 02:34:27;;;;;;;;;;;11.90;99.90;;;;;;5048975;28;20356;-74
2022/12/23 02:36:57;;;;;;;;;;;11.20;99.90;;;;;;5047260;28;19928;-74
2022/12/23 02:39:30;;;;;;;;;;;11.20;99.90;;;;;;5041918;28;19928;-74
2022/12/23 02:41:58;;;;;;;;;;;11.20;99.90;;;;;;5041182;28;19939;-74
2022/12/23 02:44:29;;;;;;;;;;;11.20;99.90;;;;;;5040038;28;19924;-74
2022/12/23 02:47:00;;;;;;;;;;;11.20;99.90;;;;;;5038030;28;19955;-74
2022/12/23 02:49:30;;;;;;;;;;;11.10;99.90;;;;;;5048505;28;19925;-74
2022/12/23 02:51:58;;;;;;;;;;;11.00;99.90;;;;;;5038169;28;20449;-73
2022/12/23 02:54:28;;;;;;;;;;;10.70;99.90;;;;;;5043651;28;19936;-74
2022/12/23 02:56:56;;;;;;;;;;;11.00;99.90;;;;;;5042879;28;20074;-74
2022/12/23 02:59:25;;;;;;;;;;;11.00;99.90;;;;;;5042249;28;19929;-74
2022/12/23 03:01:53;;;;;;;;;;;10.90;99.90;;;;;;5037798;28;19925;-74
2022/12/23 03:04:21;;;;;;;;;;;11.00;99.90;;;;;;5027798;28;19944;-74
2022/12/23 03:06:50;;;;;;;;;;;12.30;99.90;;;;;;5047221;28;19933;-74
2022/12/23 03:09:24;;;;;;;;;;;11.00;99.90;;;;;;5039899;28;20015;-74
2022/12/23 03:11:55;;;;;;;;;;;11.80;99.90;;;;;;5046316;28;20024;-74
2022/12/23 03:14:29;;;;;;;;;;;11.10;99.90;;;;;;5044532;28;19928;-74
2022/12/23 03:17:00;;;;;;;;;;;11.10;99.90;;;;;;5039029;28;19948;-74
2022/12/23 03:19:31;;;;;;;;;;;11.10;99.90;;;;;;5044188;28;19935;-74
2022/12/23 03:22:03;;;;;;;;;;;11.10;99.90;;;;;;5036311;28;19986;-74
2022/12/23 03:24:34;;;;;;;;;;;12.20;99.90;;;;;;5040474;28;19928;-74
2022/12/23 03:27:04;;;;;;;;;;;11.20;99.90;;;;;;5042783;28;20290;-74
2022/12/23 03:29:35;;;;;;;;;;;10.50;99.90;;;;;;5045173;28;19929;-74
2022/12/23 03:32:03;;;;;;;;;;;11.20;99.90;;;;;;5043201;28;19933;-74
2022/12/23 03:34:34;;;;;;;;;;;11.20;99.90;;;;;;5044255;28;20043;-74
2022/12/23 03:37:03;;;;;;;;;;;11.20;99.90;;;;;;5032187;28;19929;-74
2022/12/23 03:39:32;;;;;;;;;;;11.20;99.90;;;;;;5044307;28;19939;-75
2022/12/23 03:42:01;;;;;;;;;;;11.20;99.90;;;;;;5049253;28;19939;-75
2022/12/23 03:44:29;;;;;;;;;;;11.20;99.90;;;;;;5029897;28;19928;-75
2022/12/23 03:47:00;;;;;;;;;;;11.10;99.90;;;;;;5047608;28;19924;-75
2022/12/23 03:49:28;;;;;;;;;;;12.30;99.90;;;;;;5031422;28;19929;-75
2022/12/23 03:52:00;;;;;;;;;;;11.10;99.90;;;;;;5046547;28;19940;-75
2022/12/23 03:54:28;;;;;;;;;;;11.10;99.90;;;;;;5051398;28;19986;-75
2022/12/23 03:56:57;;;;;;;;;;;11.60;99.90;;;;;;5028831;28;20066;-75
2022/12/23 03:59:26;;;;;;;;;;;11.00;99.90;;;;;;5049856;28;19948;-75
2022/12/23 04:01:57;;;;;;;;;;;11.00;99.90;;;;;;5043460;28;19929;-75
2022/12/23 04:04:25;;;;;;;;;;;11.00;99.90;;;;;;5049270;28;19939;-75
2022/12/23 04:06:55;;;;;;;;;;;11.00;99.90;;;;;;5036252;28;20002;-75
2022/12/23 04:09:24;;;;;;;;;;;11.40;99.90;;;;;;5031561;28;19943;-75
2022/12/23 04:11:51;;;;;;;;;;;11.00;99.90;;;;;;5032661;28;19932;-75
2022/12/23 04:14:18;;;;;;;;;;;12.30;99.90;;;;;;5049428;28;19936;-75
2022/12/23 04:16:45;;;;;;;;;;;11.00;99.90;;;;;;5043673;28;19931;-75
2022/12/23 04:19:12;;;;;;;;;;;11.00;99.90;;;;;;5042107;28;19936;-74
2022/12/23 04:21:39;;;;;;;;;;;10.30;99.90;;;;;;5048170;28;19925;-74
2022/12/23 04:24:06;;;;;;;;;;;11.00;99.90;;;;;;5038639;28;19940;-75
2022/12/23 04:26:34;;;;;;;;;;;10.90;99.90;;;;;;5046713;28;19941;-75
2022/12/23 04:29:00;;;;;;;;;;;10.90;99.90;;;;;;5034119;28;20158;-75
2022/12/23 04:31:27;;;;;;;;;;;12.30;99.90;;;;;;5031083;28;20397;-75
2022/12/23 04:33:54;;;;;;;;;;;10.80;99.90;;;;;;5042846;28;19929;-75
2022/12/23 04:36:21;;;;;;;;;;;10.80;99.90;;;;;;5050953;28;19941;-75
2022/12/23 04:38:47;;;;;;;;;;;10.80;99.90;;;;;;5043763;28;20862;-74
2022/12/23 04:41:14;;;;;;;;;;;10.80;99.90;;;;;;5072610;23;19928;-71
2022/12/23 04:43:42;;;;;;;;;;;10.90;99.90;;;;;;5056794;28;20226;-71
2022/12/23 04:46:09;;;;;;;;;;;10.90;99.90;;;;;;5066628;28;19928;-71
2022/12/23 04:48:36;;;;;;;;;;;10.90;99.90;;;;;;5075873;28;19933;-72
2022/12/23 04:51:02;;;;;;;;;;;10.80;99.90;;;;;;5043375;28;19929;-72
2022/12/23 04:53:29;;;;;;;;;;;10.80;99.90;;;;;;5028198;28;19936;-72
2022/12/23 04:55:56;;;;;;;;;;;10.80;99.90;;;;;;5030711;28;19925;-72
2022/12/23 04:58:23;;;;;;;;;;;10.80;99.90;;;;;;5046088;28;20452;-72
2022/12/23 05:00:59;;;;;;;;;;;10.70;99.90;;;;;;5041080;28;20348;-72
2022/12/23 05:03:26;;;;;;;;;;;10.70;99.90;;;;;;5044779;28;19929;-72
2022/12/23 05:05:53;;;;;;;;;;;10.60;99.90;;;;;;5031158;28;19933;-72
2022/12/23 05:08:20;;;;;;;;;;;10.70;99.90;;;;;;5037825;28;19937;-72
2022/12/23 05:10:46;;;;;;;;;;;10.60;99.90;;;;;;5033266;28;19936;-72
2022/12/23 05:13:13;;;;;;;;;;;10.60;99.90;;;;;;5042631;28;19935;-72
2022/12/23 05:15:40;;;;;;;;;;;10.60;99.90;;;;;;5019822;28;20317;-73
2022/12/23 05:18:08;;;;;;;;;;;10.60;99.90;;;;;;5022210;28;19933;-73
2022/12/23 05:20:35;;;;;;;;;;;10.60;99.90;;;;;;5030179;28;19929;-74
2022/12/23 05:23:01;;;;;;;;;;;10.60;99.90;;;;;;5034503;28;19937;-74
2022/12/23 05:25:28;;;;;;;;;;;10.60;99.90;;;;;;5028042;28;19929;-73
2022/12/23 05:27:55;;;;;;;;;;;10.60;99.90;;;;;;5035167;28;19929;-73
2022/12/23 05:30:22;;;;;;;;;;;11.50;99.90;;;;;;5031064;28;19933;-74
2022/12/23 05:32:52;;;;;;;;;;;10.60;99.90;;;;;;5038654;28;20012;-74
2022/12/23 05:35:20;;;;;;;;;;;10.30;99.90;;;;;;5045308;28;19928;-74
2022/12/23 05:37:47;;;;;;;;;;;10.70;99.90;;;;;;5038613;28;19929;-74
2022/12/23 05:40:14;;;;;;;;;;;10.70;99.90;;;;;;5033810;28;19936;-74
2022/12/23 05:42:40;;;;;;;;;;;10.70;99.90;;;;;;5022790;28;19940;-74
2022/12/23 05:45:08;;;;;;;;;;;10.70;99.90;;;;;;5039500;28;19936;-73
2022/12/23 05:47:34;;;;;;;;;;;10.70;99.90;;;;;;5029434;28;19997;-74
2022/12/23 05:50:01;;;;;;;;;;;10.70;99.90;;;;;;5020321;28;19936;-74
2022/12/23 05:52:29;;;;;;;;;;;11.90;99.90;;;;;;5030697;28;19929;-75
2022/12/23 05:54:56;;;;;;;;;;;10.80;99.90;;;;;;5037473;28;19929;-75
2022/12/23 05:57:23;;;;;;;;;;;11.50;99.90;;;;;;5033651;28;19956;-76
2022/12/23 05:59:49;;;;;;;;;;;10.80;99.90;;;;;;5037146;28;20314;-74
2022/12/23 06:02:16;;;;;;;;;;;10.80;99.90;;;;;;5026748;28;19932;-74
2022/12/23 06:04:43;;;;;;;;;;;10.80;99.90;;;;;;5030928;28;20462;-73
2022/12/23 06:07:09;;;;;;;;;;;10.80;99.90;;;;;;5028639;28;19929;-74
2022/12/23 06:09:37;;;;;;;;;;;10.80;99.90;;;;;;5041634;28;19929;-74
2022/12/23 06:12:04;;;;;;;;;;;10.80;99.90;;;;;;5043528;28;19929;-74
2022/12/23 06:14:31;;;;;;;;;;;10.70;99.90;;;;;;5036423;28;20034;-74
2022/12/23 06:16:58;;;;;;;;;;;10.70;99.90;;;;;;5029320;28;20382;-73
2022/12/23 06:19:26;;;;;;;;;;;10.80;99.90;;;;;;5047902;28;20381;-73
2022/12/23 06:21:52;;;;;;;;;;;10.80;99.90;;;;;;5029610;28;19940;-74
2022/12/23 06:24:19;;;;;;;;;;;10.80;99.90;;;;;;5027108;28;19929;-75
2022/12/23 06:26:47;;;;;;;;;;;10.10;99.90;;;;;;5029586;28;19952;-75
2022/12/23 06:29:14;;;;;;;;;;;10.80;99.90;;;;;;5031546;28;20282;-74
2022/12/23 06:31:41;;;;;;;;;;;10.80;99.90;;;;;;5040746;28;19931;-74
2022/12/23 06:34:07;;;;;;;;;;;10.80;99.90;;;;;;5051579;28;19936;-75
2022/12/23 06:36:34;;;;;;;;;;;10.80;99.90;;;;;;5035329;28;19929;-74
2022/12/23 06:39:01;;;;;;;;;;;10.80;99.90;;;;;;5024240;28;19968;-74
2022/12/23 06:41:28;;;;;;;;;;;10.80;99.90;;;;;;5027960;28;20527;-76
2022/12/23 06:43:56;;;;;;;;;;;10.80;99.90;;;;;;5034154;28;19936;-75
2022/12/23 06:46:22;;;;;;;;;;;10.40;99.90;;;;;;5038429;28;19987;-75
2022/12/23 06:48:49;;;;;;;;;;;10.80;99.90;;;;;;5034492;28;19924;-74
2022/12/23 06:51:16;;;;;;;;;;;10.80;99.90;;;;;;5023787;28;19961;-75
2022/12/23 06:53:43;;;;;;;;;;;10.80;99.90;;;;;;5023946;28;19933;-74
2022/12/23 06:56:09;;;;;;;;;;;10.80;99.90;;;;;;5019332;28;19925;-75
2022/12/23 06:58:36;;;;;;;;;;;10.80;99.90;;;;;;5032468;28;19976;-75
2022/12/23 07:01:05;;;;;;;;;;;10.80;99.90;;;;;;5017972;28;19934;-76
2022/12/23 07:03:32;;;;;;;;;;;10.70;99.90;;;;;;5027130;28;19939;-75
2022/12/23 07:05:58;;;;;;;;;;;10.70;99.90;;;;;;5031915;28;20301;-74
2022/12/23 07:08:25;;;;;;;;;;;10.70;99.90;;;;;;5021578;28;19933;-74
2022/12/23 07:10:56;;;;;;;;;;;10.60;99.90;;;;;;5019239;28;19933;-75
2022/12/23 07:13:23;;;;;;;;;;;10.60;99.90;;;;;;5024525;28;20432;-74
2022/12/23 07:15:50;;;;;;;;;;;10.60;99.90;;;;;;5031634;28;19924;-74
2022/12/23 07:18:18;;;;;;;;;;;10.60;99.90;;;;;;5036363;28;20294;-74
2022/12/23 07:20:45;;;;;;;;;;;10.60;99.90;;;;;;5025887;28;19929;-75
2022/12/23 07:23:11;;;;;;;;;;;10.60;99.90;;;;;;5016342;28;19947;-74
2022/12/23 07:25:38;;;;;;;;;;;10.60;99.90;;;;;;5033562;28;19935;-74
2022/12/23 07:28:05;;;;;;;;;;;10.60;99.90;;;;;;5030442;28;19929;-74
2022/12/23 07:30:31;;;;;;;;;;;10.60;99.90;;;;;;5030541;28;19952;-76
2022/12/23 07:32:58;;;;;;;;;;;10.60;99.90;;;;;;5022444;28;20419;-74
2022/12/23 07:35:26;;;;;;;;;;;10.60;99.90;;;;;;5022583;28;19948;-74
2022/12/23 07:37:54;;;;;;;;;;;10.70;99.90;;;;;;5022778;28;19933;-74
2022/12/23 07:40:21;;;;;;;;;;;10.70;99.90;;;;;;5017800;28;20035;-75
2022/12/23 07:42:48;;;;;;;;;;;10.70;99.90;;;;;;5023088;28;19939;-73
2022/12/23 07:45:15;;;;;;;;;;;10.70;99.90;;;;;;5013571;28;20564;-74
2022/12/23 07:47:41;;;;;;;;;;;10.70;99.90;;;;;;5015600;28;19933;-74
2022/12/23 07:50:09;;;;;;;;;;;10.20;99.90;;;;;;5029324;28;19948;-73
2022/12/23 07:52:37;;;;;;;;;;;10.70;99.90;;;;;;5008951;28;19944;-74
2022/12/23 07:55:04;;;;;;;;;;;10.70;99.90;;;;;;5007135;28;19940;-76
2022/12/23 07:57:36;;;;;;;;;;;10.90;99.90;;;;;;5013380;28;19940;-74
2022/12/23 08:00:03;;;;;;;;;;;10.70;99.90;;;;;;5015667;28;19933;-74
2022/12/23 08:02:39;;;;;;;;;;;10.70;99.90;;;;;;5019679;28;19929;-73
2022/12/23 08:05:06;;;;;;;;;;;10.20;99.90;;;;;;5039530;28;20039;-75
2022/12/23 08:07:33;;;;;;;;;;;10.70;99.90;;;;;;5029580;28;20315;-73
2022/12/23 08:10:01;;;;;;;;;;;10.70;99.90;;;;;;5034012;28;19943;-75
2022/12/23 08:12:28;;;;;;;;;;;10.70;99.90;;;;;;5035135;28;20329;-75
2022/12/23 08:14:54;;;;;;;;;;;10.80;99.90;;;;;;5029818;28;20450;-73
2022/12/23 08:17:21;;;;;;;;;;;10.80;99.90;;;;;;5020811;28;19929;-73
2022/12/23 08:19:51;;;;;;;;;;;10.80;99.90;;;;;;5019705;28;19933;-75
2022/12/23 08:22:18;;;;;;;;;;;10.80;99.90;;;;;;5006854;28;19933;-74
2022/12/23 08:24:44;;;;;;;;;;;10.90;99.90;;;;;;5010050;28;20316;-75
2022/12/23 08:27:12;;;;;;;;;;;10.90;99.90;;;;;;5015909;28;19925;-73
2022/12/23 08:29:40;;;;;;;;;;;11.10;99.90;;;;;;5014917;28;19933;-76
2022/12/23 08:32:07;;;;;;;;;;;10.90;99.90;;;;;;5009960;28;19940;-74
2022/12/23 08:34:34;;;;;;;;;;;11.00;99.90;;;;;;5008713;28;20161;-73
2022/12/23 08:37:00;;;;;;;;;;;11.00;99.90;;;;;;5012786;28;19928;-74
2022/12/23 08:39:27;;;;;;;;;;;12.20;99.90;;;;;;5012594;28;19925;-74
2022/12/23 08:41:54;;;;;;;;;;;11.00;99.90;;;;;;5014510;28;19933;-74
2022/12/23 08:44:25;;;;;;;;;;;12.50;99.90;;;;;;5007910;28;19926;-74
2022/12/23 08:46:52;;;;;;;;;;;11.00;99.90;;;;;;5018518;28;20328;-74
2022/12/23 08:49:19;;;;;;;;;;;11.00;99.90;;;;;;5017144;28;21312;-76
2022/12/23 08:51:46;;;;;;;;;;;11.00;99.90;;;;;;5011067;28;19941;-74
2022/12/23 08:54:12;;;;;;;;;;;11.10;99.90;;;;;;5017454;28;19933;-73
2022/12/23 08:56:41;;;;;;;;;;;11.10;99.90;;;;;;5018214;28;20813;-75
2022/12/23 08:59:11;;;;;;;;;;;11.90;99.90;;;;;;5018914;28;19925;-74
2022/12/23 09:01:39;;;;;;;;;;;11.10;99.90;;;;;;5024897;28;19933;-74
2022/12/23 09:04:06;;;;;;;;;;;11.10;99.90;;;;;;5019500;28;19948;-72
2022/12/23 09:06:34;;;;;;;;;;;11.10;99.90;;;;;;5018433;28;20022;-72
2022/12/23 09:09:01;;;;;;;;;;;11.00;99.90;;;;;;5019855;28;19934;-72
2022/12/23 09:11:28;;;;;;;;;;;11.20;99.90;;;;;;5018284;28;19944;-72
2022/12/23 09:13:56;;;;;;;;;;;12.00;99.90;;;;;;5020132;28;19933;-71
2022/12/23 09:16:23;;;;;;;;;;;11.20;99.90;;;;;;5024322;28;19929;-72
2022/12/23 09:18:51;;;;;;;;;;;11.40;99.90;;;;;;5033303;28;19929;-72
2022/12/23 09:21:18;;;;;;;;;;;11.20;99.90;;;;;;5019698;28;19933;-72
2022/12/23 09:23:45;;;;;;;;;;;11.20;99.90;;;;;;5020503;28;19940;-72
2022/12/23 09:26:17;;;;;;;;;;;11.20;99.90;;;;;;5028091;28;19924;-72
2022/12/23 09:28:43;;;;;;;;;;;11.20;99.90;;;;;;5038716;28;19925;-72
2022/12/23 09:31:11;;;;;;;;;;;12.50;99.90;;;;;;5037031;28;19929;-72
2022/12/23 09:33:38;;;;;;;;;;;11.40;99.90;;;;;;5030789;28;19925;-71
2022/12/23 09:36:07;;;;;;;;;;;11.10;99.90;;;;;;5029224;28;19933;-71
2022/12/23 09:38:33;;;;;;;;;;;11.20;99.90;;;;;;5028874;28;20298;-72
2022/12/23 09:41:04;;;;;;;;;;;11.20;99.90;;;;;;5018142;28;20428;-74
2022/12/23 09:43:35;;;;;;;;;;;11.20;99.90;;;;;;5020934;28;19933;-73
2022/12/23 09:46:06;;;;;;;;;;;11.60;99.90;;;;;;5018981;28;21289;-76
2022/12/23 09:48:34;;;;;;;;;;;12.80;99.90;;;;;;5035826;28;20410;-73
2022/12/23 09:51:02;;;;;;;;;;;11.30;99.90;;;;;;5018052;28;20509;-74
2022/12/23 09:53:39;;;;;;;;;;;12.80;99.90;;;;;;5021190;28;19933;-74
2022/12/23 09:56:08;;;;;;;;;;;11.30;99.90;;;;;;5016304;28;19941;-73
2022/12/23 09:58:42;;;;;;;;;;;11.10;99.90;;;;;;5015741;28;20314;-73
2022/12/23 10:01:13;;;;;;;;;;;11.30;99.90;;;;;;5015870;28;19940;-73
2022/12/23 10:03:50;;;;;;;;;;;11.30;99.90;;;;;;5015961;28;20355;-75
2022/12/23 10:06:19;;;;;;;;;;;11.30;99.90;;;;;;5017196;28;19936;-73
2022/12/23 10:08:49;;;;;;;;;;;11.00;99.90;;;;;;5015536;28;19937;-74
2022/12/23 10:11:18;;;;;;;;;;;11.30;99.90;;;;;;5010875;28;19939;-74
2022/12/23 10:13:46;;;;;;;;;;;11.30;99.90;;;;;;5015318;28;19944;-74
2022/12/23 10:16:15;;;;;;;;;;;11.30;99.90;;;;;;5015270;28;19935;-74
2022/12/23 10:18:44;;;;;;;;;;;12.00;99.90;;;;;;5014261;28;19940;-73
2022/12/23 10:21:14;;;;;;;;;;;11.30;99.90;;;;;;5012678;28;19955;-74
2022/12/23 10:23:43;;;;;;;;;;;12.70;99.90;;;;;;5013556;28;19940;-73
2022/12/23 10:26:17;;;;;;;;;;;12.40;99.90;;;;;;5017043;28;20412;-74
2022/12/23 10:28:43;;;;;;;;;;;11.40;99.90;;;;;;5017609;28;19933;-73
2022/12/23 10:31:13;;;;;;;;;;;12.30;99.90;;;;;;5015915;28;19933;-74
2022/12/23 10:33:45;;;;;;;;;;;11.00;99.90;;;;;;5020760;28;19943;-75
2022/12/23 10:36:15;;;;;;;;;;;11.50;99.90;;;;;;5012383;28;20027;-75
2022/12/23 10:38:46;;;;;;;;;;;11.50;99.90;;;;;;5019530;28;20043;-74
2022/12/23 10:41:19;;;;;;;;;;;11.60;99.90;;;;;;5010618;28;19941;-74
2022/12/23 10:43:56;;;;;;;;;;;11.40;99.90;;;;;;5019243;28;19933;-75
2022/12/23 10:46:26;;;;;;;;;;;11.70;99.90;;;;;;5015638;28;19929;-75
2022/12/23 10:48:59;;;;;;;;;;;12.60;99.90;;;;;;5018326;28;20016;-75
2022/12/23 10:51:28;;;;;;;;;;;11.70;99.90;;;;;;5001817;28;19944;-75
2022/12/23 10:53:56;;;;;;;;;;;12.70;99.90;;;;;;5009584;28;19933;-74
2022/12/23 10:56:24;;;;;;;;;;;11.80;99.90;;;;;;5011303;28;19936;-75
2022/12/23 10:58:55;;;;;;;;;;;11.40;99.90;;;;;;5011046;28;20403;-74
2022/12/23 11:01:22;;;;;;;;;;;11.90;99.90;;;;;;5007939;28;20099;-74
2022/12/23 11:03:53;;;;;;;;;;;11.90;99.90;;;;;;5009291;28;20425;-74
2022/12/23 11:06:21;;;;;;;;;;;12.60;99.90;;;;;;5005561;28;19933;-74
2022/12/23 11:08:48;;;;;;;;;;;11.80;99.90;;;;;;5004797;28;19933;-73
2022/12/23 11:11:14;;;;;;;;;;;11.70;99.90;;;;;;5009500;28;20499;-76
2022/12/23 11:13:44;;;;;;;;;;;11.70;99.90;;;;;;5011857;28;19932;-73
2022/12/23 11:16:12;;;;;;;;;;;11.70;99.90;;;;;;5013790;28;19933;-73
2022/12/23 11:18:38;;;;;;;;;;;11.70;99.90;;;;;;5015415;28;20337;-73
2022/12/23 11:21:06;;;;;;;;;;;11.70;99.90;;;;;;5022393;28;19933;-74
2022/12/23 11:23:34;;;;;;;;;;;11.70;99.90;;;;;;5024863;28;19944;-74
2022/12/23 11:26:02;;;;;;;;;;;11.70;99.90;;;;;;5013690;28;19933;-74
2022/12/23 11:28:29;;;;;;;;;;;12.70;99.90;;;;;;5012511;28;19933;-74
2022/12/23 11:31:00;;;;;;;;;;;11.70;99.90;;;;;;5016092;28;19929;-73
2022/12/23 11:33:28;;;;;;;;;;;11.60;99.90;;;;;;5020128;28;20009;-73
2022/12/23 11:36:03;;;;;;;;;;;11.60;99.90;;;;;;5011706;28;19929;-73
2022/12/23 11:38:29;;;;;;;;;;;11.60;99.90;;;;;;5023803;28;19929;-75
2022/12/23 11:40:56;;;;;;;;;;;11.50;99.90;;;;;;5022952;28;19929;-74
2022/12/23 11:43:24;;;;;;;;;;;11.50;99.90;;;;;;5029615;28;20343;-74
2022/12/23 11:46:11;;;;;;;;;;;11.40;99.90;;;;;;5021684;28;19929;-73
2022/12/23 11:48:39;;;;;;;;;;;12.70;99.90;;;;;;5027759;28;19930;-74
2022/12/23 11:51:06;;;;;;;;;;;11.50;99.90;;;;;;5019841;28;19986;-74
2022/12/23 11:53:35;;;;;;;;;;;11.60;99.90;;;;;;5019622;28;19929;-74
2022/12/23 11:56:05;;;;;;;;;;;11.60;99.90;;;;;;5016864;28;19960;-73
2022/12/23 11:58:36;;;;;;;;;;;11.80;99.90;;;;;;5019072;28;20028;-73
2022/12/23 12:01:07;;;;;;;;;;;13.00;99.90;;;;;;5018918;28;20015;-73
2022/12/23 12:03:35;;;;;;;;;;;11.90;99.90;;;;;;5030396;28;19932;-74
2022/12/23 12:06:04;;;;;;;;;;;11.90;99.90;;;;;;5024914;28;19975;-73
2022/12/23 12:08:32;;;;;;;;;;;11.90;99.90;;;;;;5025163;28;20052;-74
2022/12/23 12:11:05;;;;;;;;;;;11.90;99.90;;;;;;5028009;28;20355;-74
2022/12/23 12:13:35;;;;;;;;;;;13.30;99.90;;;;;;5021947;28;20349;-75
2022/12/23 12:16:07;;;;;;;;;;;11.40;99.90;;;;;;5027791;28;19925;-74
2022/12/23 12:18:34;;;;;;;;;;;11.40;99.90;;;;;;5027980;28;19929;-72
2022/12/23 12:21:04;;;;;;;;;;;12.80;99.90;;;;;;5020485;28;19968;-72
2022/12/23 12:23:35;;;;;;;;;;;11.60;99.90;;;;;;5041868;28;19929;-71
2022/12/23 12:26:04;;;;;;;;;;;12.50;99.90;;;;;;5016299;28;19944;-71
2022/12/23 12:28:34;;;;;;;;;;;11.50;99.90;;;;;;5021504;28;19933;-72
2022/12/23 12:31:03;;;;;;;;;;;11.50;99.90;;;;;;5017974;28;20274;-71
2022/12/23 12:33:33;;;;;;;;;;;11.40;99.90;;;;;;5017562;28;19933;-72
2022/12/23 12:36:06;;;;;;;;;;;12.90;99.90;;;;;;5021926;28;20221;-72
2022/12/23 12:38:38;;;;;;;;;;;11.30;99.90;;;;;;5019610;28;19937;-73
2022/12/23 12:41:09;;;;;;;;;;;11.20;99.90;;;;;;5049928;22;20511;-77
2022/12/23 12:43:38;;;;;;;;;;;12.90;99.90;;;;;;5022314;28;19933;-76
2022/12/23 12:46:11;;;;;;;;;;;12.30;99.90;;;;;;5014697;28;19933;-77
2022/12/23 12:48:45;;;;;;;;;;;11.00;99.90;;;;;;5020949;28;20512;-77
2022/12/23 12:51:15;;;;;;;;;;;11.80;99.90;;;;;;5016537;28;19933;-77
2022/12/23 12:53:50;;;;;;;;;;;10.90;99.90;;;;;;5013480;28;19933;-76
2022/12/23 12:56:20;;;;;;;;;;;10.80;99.90;;;;;;5020531;28;19952;-78
2022/12/23 12:58:47;;;;;;;;;;;10.80;99.90;;;;;;5020092;28;20129;-78
2022/12/23 13:01:21;;;;;;;;;;;10.80;99.90;;;;;;5022449;28;19944;-80
2022/12/23 13:04:02;;;;;;;;;;;10.70;99.90;;;;;;5031506;28;19933;-78
2022/12/23 13:06:32;;;;;;;;;;;10.70;99.90;;;;;;5026504;28;19937;-78
2022/12/23 13:09:05;;;;;;;;;;;10.60;99.90;;;;;;5017045;28;19954;-77
2022/12/23 13:11:39;;;;;;;;;;;10.60;99.90;;;;;;5018520;28;20309;-77
2022/12/23 13:14:09;;;;;;;;;;;10.60;99.90;;;;;;5022481;28;19933;-77
2022/12/23 13:16:40;;;;;;;;;;;10.60;99.90;;;;;;5021440;28;19939;-77
2022/12/23 13:19:15;;;;;;;;;;;10.30;99.90;;;;;;5022843;28;19933;-76
2022/12/23 13:21:45;;;;;;;;;;;10.60;99.90;;;;;;5022158;28;19929;-77
2022/12/23 13:24:17;;;;;;;;;;;10.50;99.90;;;;;;5023293;28;19933;-77
2022/12/23 13:26:51;;;;;;;;;;;10.40;99.90;;;;;;5023553;28;19925;-77
2022/12/23 13:29:28;;;;;;;;;;;10.40;99.90;;;;;;5022252;28;19936;-77
2022/12/23 13:31:59;;;;;;;;;;;10.30;99.90;;;;;;5018531;28;19933;-77
2022/12/23 13:34:31;;;;;;;;;;;10.30;99.90;;;;;;5021205;28;19940;-78
2022/12/23 13:37:02;;;;;;;;;;;10.20;99.90;;;;;;5018127;28;19936;-78
2022/12/23 13:39:35;;;;;;;;;;;10.20;99.90;;;;;;5020636;28;19933;-78
2022/12/23 13:42:03;;;;;;;;;;;10.20;99.90;;;;;;5016450;28;19933;-78
2022/12/23 13:44:32;;;;;;;;;;;10.20;99.90;;;;;;5018157;28;19937;-78
2022/12/23 13:47:04;;;;;;;;;;;10.20;99.90;;;;;;5017896;28;19939;-78
2022/12/23 13:49:35;;;;;;;;;;;10.20;99.90;;;;;;5018592;28;19936;-78
2022/12/23 13:52:06;;;;;;;;;;;10.20;99.90;;;;;;5021527;28;19929;-78
2022/12/23 13:54:42;;;;;;;;;;;10.20;99.90;;;;;;5046068;28;19923;-79
2022/12/23 13:57:13;;;;;;;;;;;10.10;99.90;;;;;;5046308;28;19929;-79
2022/12/23 13:59:41;;;;;;;;;;;10.10;99.90;;;;;;5017522;28;19929;-78
2022/12/23 14:02:38;;;;;;;;;;;10.10;99.90;;;;;;5015395;28;19932;-78
2022/12/23 14:05:29;;;;;;;;;;;10.00;99.90;;;;;;4951796;28;19979;-78
2022/12/23 14:07:57;;;;;;;;;;;10.00;99.90;;;;;;5027301;28;19933;-78
2022/12/23 14:10:25;;;;;;;;;;;10.00;99.90;;;;;;5021760;28;19941;-78
2022/12/23 14:12:57;;;;;;;;;;;10.00;99.90;;;;;;5012934;28;20483;-78
2022/12/23 14:15:27;;;;;;;;;;;10.00;99.90;;;;;;5015681;28;19944;-79
2022/12/23 14:18:01;;;;;;;;;;;10.00;99.90;;;;;;5012841;28;19984;-78
2022/12/23 14:20:33;;;;;;;;;;;9.90;99.90;;;;;;5016244;28;19944;-77
2022/12/23 14:23:05;;;;;;;;;;;9.90;99.90;;;;;;5011671;28;19956;-79
2022/12/23 14:25:37;;;;;;;;;;;9.90;99.90;;;;;;5016002;28;19955;-79
2022/12/23 14:28:11;;;;;;;;;;;9.90;99.90;;;;;;5012994;28;19948;-79
2022/12/23 14:30:39;;;;;;;;;;;9.90;99.90;;;;;;5014004;28;19933;-78
2022/12/23 14:33:14;;;;;;;;;;;9.90;99.90;;;;;;5016059;28;19939;-79
2022/12/23 14:35:52;;;;;;;;;;;9.90;99.90;;;;;;5033545;28;20395;-79
2022/12/23 14:38:26;;;;;;;;;;;9.90;99.90;;;;;;5039747;28;19999;-77
2022/12/23 14:41:11;;;;;;;;;;;9.90;99.90;;;;;;5021731;28;19933;-78
2022/12/23 14:43:58;;;;;;;;;;;9.90;99.90;;;;;;5019251;28;19940;-78
2022/12/23 14:46:40;;;;;;;;;;;9.90;99.90;;;;;;5038715;28;19929;-77
2022/12/23 14:49:21;;;;;;;;;;;9.90;99.90;;;;;;5030882;28;19947;-79
2022/12/23 14:51:49;;;;;;;;;;;9.90;99.90;;;;;;5038387;28;19929;-77
2022/12/23 14:54:16;;;;;;;;;;;9.90;99.90;;;;;;5040725;28;19968;-78
2022/12/23 14:56:57;;;;;;;;;;;9.90;99.90;;;;;;5036070;28;19944;-78